Flight Track Log - Related Links

Times and Time Zones

All times are in EDT time to prevent confusion due to time zone crossing. See the ASQ5975 flight status page for this flight to view local times or setup timezone preferences in your user account.

Time Position Orientation Groundspeed Altitude Reporting Facility
EDT Latitude Longitude Course Direction KTS MPH feet Rate Location/Type
Fri 11:26:57 AM 41.9667 -87.9333 90° East 160 184 2,100  Level Chicago TRACON
Fri 11:27:51 AM 42.0167 -87.9333 360° North 253 291 4,100 2,400 Climbing Chicago TRACON
Fri 11:28:57 AM 42.0500 -87.8333 66° East 306 352 6,900 2,681 Climbing Chicago TRACON
Fri 11:30:00 AM 42.0551 -87.3336 78° East  Level FlightAware
Fri 11:30:12 AM 42.0628 -87.7097 82° East 292 336 10,400  Level Chicago Center
Fri 11:31:00 AM 42.0773 -87.1898 78° East  Level FlightAware
Fri 11:31:14 AM 42.0722 -87.6008 83° East 291 335 12,500  Level Chicago Center
Fri 11:32:00 AM 42.1000 -87.0466 90° East  Level FlightAware
Fri 11:32:16 AM 42.0817 -87.4636 85° East 341 392 13,700  Level Chicago Center
Fri 11:33:18 AM 42.0844 -87.3222 88° East 375 432 14,800 1,171 Climbing Chicago Center
Fri 11:34:19 AM 42.0856 -87.1719 89° East 399 459 16,100 1,659 Climbing Chicago Center
Fri 11:35:21 AM 42.0872 -87.0247 89° East 403 464 18,200 1,887 Climbing Chicago Center
Fri 11:36:23 AM 42.0881 -86.8742 90° East 404 465 20,000 1,645 Climbing Chicago Center
Fri 11:37:25 AM 42.0872 -86.7278 90° East 396 456 21,600 1,306 Climbing Chicago Center
Fri 11:38:27 AM 42.0878 -86.5783 90° East 396 456 22,700 871 Climbing Chicago Center
Fri 11:39:29 AM 42.0878 -86.3922 90° East 407 468 23,400 871 Climbing Chicago Center
Fri 11:40:31 AM 42.0869 -86.2381 90° East 409 471 24,500 780 Climbing Chicago Center
Fri 11:41:32 AM 42.0856 -86.0753 91° East 431 496 25,000 244 Climbing Chicago Center
Fri 11:42:34 AM 42.0853 -85.9178 90° East 451 519 25,000  Level Chicago Center
Fri 11:43:36 AM 42.0842 -85.7075 90° East 468 539 25,000  Level Chicago Center
Fri 11:44:38 AM 42.0836 -85.5306 90° East 475 547 25,000  Level Chicago Center
Fri 11:45:40 AM 42.0825 -85.3531 90° East 477 549 25,000  Level Chicago Center
Fri 11:46:42 AM 42.0800 -85.1750 91° East 477 549 25,000  Level Chicago Center
Fri 11:47:43 AM 42.0783 -84.9967 91° East 478 550 25,000  Level Chicago Center
Fri 11:48:45 AM 42.0756 -84.8150 91° East 481 554 25,000  Level Chicago Center
Fri 11:49:47 AM 42.0728 -84.5953 91° East 486 559 25,000  Level Chicago Center
Fri 11:50:29 AM 42.0706 -84.4947 92° East 488 562 25,000  Level Cleveland Center
Fri 11:51:31 AM 42.0661 -84.2744 91° East 489 563 25,000  Level Cleveland Center
Fri 11:52:33 AM 42.0631 -84.0911 91° East 489 563 25,000  Level Cleveland Center
Fri 11:53:35 AM 42.0586 -83.9089 92° East 489 563 25,000  Level Cleveland Center
Fri 11:54:37 AM 42.0544 -83.7258 92° East 490 564 25,000  Level Cleveland Center
Fri 11:55:38 AM 42.0508 -83.5519 92° East 485 558 25,000  Level Cleveland Center
Fri 11:56:40 AM 42.0381 -83.3528 95° East 459 528 25,000 -242 Level Cleveland Center
Fri 11:57:42 AM 42.0231 -83.1911 97° East 437 503 24,500 -1,452 Descending Cleveland Center
Fri 11:58:44 AM 42.0075 -83.0386 98° East 421 484 22,000 -2,526 Descending Cleveland Center
Fri 11:59:36 AM 41.9936 -82.9014 98° East 418 481 19,700 -2,571 Descending Cleveland Center
Fri 11:59:47 AM 41.9928 -82.8806 93° East 425 489 19,300 -3,061 Descending Cleveland Center
Fri 12:00:25 PM 41.9794 -82.7694 99° East 428 493 17,200 -2,710 Descending Cleveland Center
Fri 12:00:49 PM 41.9769 -82.7197 94° East 432 497 16,500 -2,300 Descending Cleveland Center
Fri 12:01:25 PM 41.9656 -82.6119 98° East 429 494 14,900 -2,226 Descending Cleveland Center
Fri 12:01:51 PM 41.9611 -82.5686 98° East 415 478 14,200 -2,328 Descending Cleveland Center
Fri 12:02:32 PM 41.9286 -82.4533 111° Southeast 379 436 12,300 -2,419 Descending Cleveland Center
Fri 12:02:53 PM 41.9150 -82.4089 112° Southeast 385 443 11,700 -1,700 Descending Cleveland Center
Fri 12:03:32 PM 41.8867 -82.3222 114° Southeast 381 438 10,600 -1,475 Descending Cleveland Center
Fri 12:03:54 PM 41.8731 -82.2764 112° Southeast 385 443 10,200 -627 Descending Cleveland Center
Fri 12:04:39 PM 41.8414 -82.1797 114° Southeast 381 438 9,900 -194 Descending Cleveland Center
Fri 12:04:56 PM 41.8306 -82.1500 116° Southeast 379 436 10,000  Climbing Cleveland Center
Fri 12:05:40 PM 41.7756 -82.0983 145° Southeast 315 362 9,900  Descending Cleveland Center
Fri 12:05:58 PM 41.7553 -82.0725 136° Southeast 319 367 10,000 -333 Climbing Cleveland Center
Fri 12:06:34 PM 41.7225 -82.0364 141° Southeast 242 278 9,600 -1,065 Descending Cleveland Center
Fri 12:07:00 PM 41.7022 -82.0139 140° Southeast 255 293 8,900 -1,574 Descending Cleveland Center
Fri 12:07:35 PM 41.6653 -81.9958 160° South 221 254 8,000 -1,355 Descending Cleveland Center
Fri 12:08:02 PM 41.6428 -81.9783 150° Southeast 238 274 7,500 -1,000 Descending Cleveland Center
Fri 12:08:35 PM 41.6125 -81.9564 152° Southeast 221 254 7,000 -581 Descending Cleveland Center
Fri 12:09:04 PM 41.5997 -81.9189 114° Southeast 245 282 6,900 -122 Descending Cleveland Center
Fri 12:09:24 PM 41.5875 -81.8850 116° Southeast 247 284 6,900 98 Level Cleveland Center
Fri 12:10:05 PM 41.5772 -81.8394 107° East 236 272 7,000  Climbing Cleveland Center
Fri 12:10:31 PM 41.5869 -81.7983 72° East 228 262 6,900 -581 Descending Cleveland Center
Fri 12:11:07 PM 41.5950 -81.7550 76° East 237 273 6,400 -1,000 Descending Cleveland Center
Fri 12:11:37 PM 41.6036 -81.7086 76° East 233 268 5,800 -968 Descending Cleveland Center
Fri 12:12:09 PM 41.5903 -81.6789 121° Southeast 222 255 5,400 -977 Descending Cleveland Center
Fri 12:12:20 PM 41.5783 -81.6628 135° Southeast 192 221 5,100 -968 Descending Cleveland Center
Fri 12:13:11 PM 41.5500 -81.6625 180° South 188 216 4,400 -822 Descending Cleveland Center
Fri 12:13:33 PM 41.5314 -81.6719 201° Southwest 147 169 4,100 -677 Descending Cleveland Center
Fri 12:14:13 PM 41.5106 -81.6956 220° Southwest 154 177 3,700 -667 Descending Cleveland Center
Fri 12:14:27 PM 41.5053 -81.7067 238° Southwest 136 157 3,500 -774 Descending Cleveland Center
Fri 12:15:15 PM 41.4867 -81.7361 230° Southwest 143 165 2,900 -716 Descending Cleveland Center
Fri 12:16:16 PM 41.4636 -81.7719 229° Southwest 134 154 2,200 -634 Descending Cleveland Center
Fri 12:17:18 PM 41.4431 -81.8053 231° Southwest 121 139 1,600 -629 Descending Cleveland Center
Fri 12:18:20 PM 41.4200 -81.8422 230° Southwest 123 142 900 -387 Descending Cleveland Center
Fri 12:19:22 PM 41.3969 -81.8767 228° Southwest 124 143 800 -97 Descending Cleveland Center

Login

Don't have an account? Register now (free) for customized features, flight alerts, and more!